Time;durP1;ratioP1;P1;durP2;ratioP2;P2;SDS_P1;SDS_P2;PMS_P1;PMS_P2;Temp;Humidity;BMP_temperature;BMP_pressure;BME280_temperature;BME280_humidity;BME280_pressure;Samples;Min_cycle;Max_cycle;Signal;HPM_P1;HPM_P2
2021/12/21 00:00:54;;;;;;;8.58;3.98;;;;;;;0.68;87.57;147842.38;1755795;80;21040;-59
2021/12/21 00:03:21;;;;;;;10.00;3.55;;;;;;;0.71;87.65;147850.09;1756973;80;21144;-61
2021/12/21 00:05:48;;;;;;;6.58;3.67;;;;;;;0.73;87.70;147855.25;1754394;80;21025;-60
2021/12/21 00:08:17;;;;;;;8.30;3.15;;;;;;;0.76;87.68;147862.97;1762816;80;21016;-60
2021/12/21 00:10:45;;;;;;;6.75;3.67;;;;;;;0.76;87.64;147862.97;1756076;80;21476;-61
2021/12/21 00:13:36;;;;;;;7.60;3.77;;;;;;;0.77;87.63;147865.53;1752665;80;21017;-60
2021/12/21 00:21:04;;;;;;;6.75;3.45;;;;;;;0.77;87.58;147865.53;1765392;79;21096;-61
2021/12/21 00:23:33;;;;;;;6.45;3.40;;;;;;;0.77;87.54;147865.53;1759156;79;21088;-61
2021/12/21 00:26:14;;;;;;;5.05;2.98;;;;;;;0.75;87.54;147860.39;1759411;81;21040;-61
2021/12/21 00:31:15;;;;;;;5.83;3.42;;;;;;;0.74;87.65;147856.55;1746221;81;21082;-62
2021/12/21 00:33:45;;;;;;;7.15;3.55;;;;;;;0.74;87.62;147857.81;1754885;80;21545;-62
2021/12/21 00:36:10;;;;;;;5.05;3.00;;;;;;;0.73;87.58;147853.98;1756265;80;21534;-62
2021/12/21 00:38:37;;;;;;;4.83;3.12;;;;;;;0.68;87.62;147842.38;1747081;80;21049;-62
2021/12/21 00:41:04;;;;;;;6.55;3.60;;;;;;;0.65;87.64;147835.92;1751894;80;21879;-61
2021/12/21 00:43:32;;;;;;;7.30;3.87;;;;;;;0.63;87.76;147829.52;1745156;80;21038;-61
2021/12/21 00:45:58;;;;;;;6.58;3.50;;;;;;;0.60;87.84;147821.78;1750236;78;21123;-62
2021/12/21 00:48:30;;;;;;;7.10;3.70;;;;;;;0.57;87.97;147815.34;1784875;79;21032;-62
2021/12/21 00:50:59;;;;;;;6.10;3.50;;;;;;;0.54;88.06;147808.88;1755147;79;21387;-60
2021/12/21 00:53:25;;;;;;;8.53;3.83;;;;;;;0.49;88.18;147794.75;1743863;80;21027;-60
2021/12/21 00:55:52;;;;;;;7.47;3.40;;;;;;;0.46;88.35;147788.30;1762045;79;21043;-60
2021/12/21 00:58:19;;;;;;;6.85;3.58;;;;;;;0.43;88.51;147780.58;1748173;79;21115;-61
2021/12/21 01:00:46;;;;;;;6.47;3.52;;;;;;;0.40;88.68;147772.86;1767098;79;21478;-61
2021/12/21 01:03:16;;;;;;;8.28;3.47;;;;;;;0.39;88.84;147770.28;1777740;79;20964;-62
2021/12/21 01:08:15;;;;;;;8.05;3.17;;;;;;;0.33;89.19;147756.11;1770156;79;21048;-61
2021/12/21 01:13:28;;;;;;;7.20;3.52;;;;;;;0.34;89.32;147757.44;1763269;80;20969;-60
2021/12/21 01:18:38;;;;;;;7.53;4.22;;;;;;;0.34;89.49;147757.44;1740300;81;21145;-59
2021/12/21 01:21:06;;;;;;;9.35;3.50;;;;;;;0.30;89.55;147747.09;1735470;81;21549;-61
2021/12/21 01:23:59;;;;;;;5.87;3.60;;;;;;;0.27;89.64;147741.94;1733976;81;21120;-61
2021/12/21 01:26:26;;;;;;;6.80;3.47;;;;;;;0.25;89.78;147736.80;1740928;81;21078;-61
2021/12/21 01:28:57;;;;;;;5.12;3.30;;;;;;;0.23;89.95;147730.39;1740386;81;21150;-60
2021/12/21 01:32:26;;;;;;;7.17;3.10;;;;;;;0.22;90.11;147727.77;1744193;81;22153;-61
2021/12/21 01:34:10;;;;;;;5.80;3.17;;;;;;;0.20;90.31;147723.94;1724960;81;21062;-59
2021/12/21 01:41:42;;;;;;;4.67;3.15;;;;;;;0.14;90.76;147708.50;1746199;81;21074;-60
2021/12/21 01:49:31;;;;;;;5.15;2.77;;;;;;;0.13;90.83;147705.94;1737894;81;21240;-59
2021/12/21 01:52:09;;;;;;;6.75;1.92;;;;;;;0.06;91.00;147689.19;1748657;81;20233;-59
2021/12/21 01:54:36;;;;;;;9.85;1.90;;;;;;;0.06;90.91;147687.87;1742073;81;20988;-57
2021/12/21 01:57:04;;;;;;;3.95;2.22;;;;;;;0.04;90.79;147684.05;1745078;81;21845;-58
2021/12/21 01:59:32;;;;;;;4.78;1.70;;;;;;;0.03;90.66;147680.17;1735547;81;21052;-61
2021/12/21 02:01:59;;;;;;;5.35;2.20;;;;;;;-0.02;90.60;147669.88;1734822;81;21066;-61
2021/12/21 02:04:26;;;;;;;2.17;1.50;;;;;;;-0.05;90.57;147662.16;1732352;81;21122;-57
2021/12/21 02:06:54;;;;;;;2.27;1.62;;;;;;;-0.08;90.56;147654.45;1744790;80;22034;-58
2021/12/21 02:09:26;;;;;;;3.75;1.50;;;;;;;-0.10;90.56;147648.00;1744146;81;21095;-58
2021/12/21 02:11:50;;;;;;;2.55;1.50;;;;;;;-0.12;90.38;147644.13;1737475;81;21495;-58
2021/12/21 02:14:18;;;;;;;2.20;1.55;;;;;;;-0.14;90.22;147638.97;1761773;80;21108;-58
2021/12/21 02:17:18;;;;;;;3.95;1.67;;;;;;;-0.17;90.11;147631.25;1760106;80;21497;-60
2021/12/21 02:19:35;;;;;;;3.08;1.35;;;;;;;-0.21;89.94;147620.97;1764319;80;21448;-61
2021/12/21 02:22:07;;;;;;;2.77;1.40;;;;;;;-0.26;89.88;147608.13;1769685;79;21099;-60
2021/12/21 02:24:37;;;;;;;2.12;1.22;;;;;;;-0.28;89.92;147602.97;1767613;80;21081;-60
2021/12/21 02:27:42;;;;;;;2.27;1.30;;;;;;;-0.28;89.88;147602.97;1766777;79;21066;-61
2021/12/21 02:29:28;;;;;;;3.50;1.70;;;;;;;-0.32;89.80;147595.27;1729177;80;21144;-61
2021/12/21 02:31:54;;;;;;;3.12;1.42;;;;;;;-0.36;89.76;147584.94;1767166;79;21043;-59
2021/12/21 02:34:22;;;;;;;2.10;1.47;;;;;;;-0.38;89.84;147578.53;1764996;80;21563;-59
2021/12/21 02:36:52;;;;;;;1.80;1.10;;;;;;;-0.38;89.80;147579.78;1765671;80;21112;-59
2021/12/21 02:39:18;;;;;;;2.47;1.30;;;;;;;-0.42;89.65;147569.50;1759378;80;21071;-59
2021/12/21 02:41:45;;;;;;;1.85;1.20;;;;;;;-0.44;89.69;147564.36;1766397;80;20950;-59
2021/12/21 02:44:14;;;;;;;1.52;1.10;;;;;;;-0.47;89.69;147557.91;1779287;79;21470;-58
2021/12/21 02:46:41;;;;;;;1.62;1.05;;;;;;;-0.51;89.63;147546.37;1773386;80;21714;-57
2021/12/21 02:49:08;;;;;;;1.55;1.05;;;;;;;-0.58;89.59;147530.91;1766995;80;21233;-57
2021/12/21 02:51:42;;;;;;;3.92;1.40;;;;;;;-0.61;89.54;147521.92;1772554;79;20861;-57
2021/12/21 02:54:09;;;;;;;2.10;1.37;;;;;;;-0.65;89.60;147511.64;1780479;79;21012;-58
2021/12/21 02:56:36;;;;;;;2.37;1.42;;;;;;;-0.68;89.57;147505.19;1771354;79;21064;-60
2021/12/21 02:59:03;;;;;;;2.52;1.55;;;;;;;-0.69;89.42;147502.63;1771441;79;21645;-60
2021/12/21 03:01:30;;;;;;;2.37;1.05;;;;;;;-0.73;89.16;147492.34;1752089;80;21115;-62
2021/12/21 03:03:57;;;;;;;2.02;1.20;;;;;;;-0.79;88.96;147478.19;1755320;80;21127;-59
2021/12/21 03:09:36;;;;;;;2.75;1.25;;;;;;;-0.91;88.27;147448.59;1750896;80;21116;-61
2021/12/21 03:14:32;;;;;;;3.62;1.45;;;;;;;-1.01;86.58;147424.17;1746324;80;21076;-60
2021/12/21 03:16:59;;;;;;;2.83;0.80;;;;;;;-1.05;85.17;147413.89;1750109;80;21446;-60
2021/12/21 03:19:26;;;;;;;1.20;0.85;;;;;;;-1.09;82.66;147403.61;1758584;80;21107;-61
2021/12/21 03:21:53;;;;;;;1.17;0.60;;;;;;;-1.12;80.92;147395.86;1747769;80;21455;-60
2021/12/21 03:24:20;;;;;;;5.60;1.30;;;;;;;-1.17;78.77;147384.31;1760996;80;21146;-60
2021/12/21 03:26:47;;;;;;;44.53;15.30;;;;;;;-1.19;78.39;147379.19;1760410;80;20890;-59
2021/12/21 03:29:14;;;;;;;15.65;6.17;;;;;;;-1.23;78.16;147368.86;1759236;80;21150;-60
2021/12/21 03:31:40;;;;;;;25.97;9.48;;;;;;;-1.26;77.57;147361.16;1757347;80;20989;-59
2021/12/21 03:34:07;;;;;;;4.42;1.40;;;;;;;-1.28;76.56;147356.02;1757876;80;21060;-59
2021/12/21 03:36:34;;;;;;;9.10;3.33;;;;;;;-1.32;74.82;147345.73;1746065;80;22004;-59
2021/12/21 03:39:06;;;;;;;21.05;8.00;;;;;;;-1.37;74.73;147334.16;1756463;80;21408;-61
2021/12/21 03:41:30;;;;;;;9.28;2.83;;;;;;;-1.40;74.45;147325.19;1750211;80;21104;-61
2021/12/21 03:44:00;;;;;;;4.67;1.20;;;;;;;-1.43;74.25;147317.48;1759391;80;21065;-61
2021/12/21 03:46:25;;;;;;;7.05;1.72;;;;;;;-1.47;74.21;147309.72;1748889;80;21547;-61
2021/12/21 03:48:52;;;;;;;1.82;0.85;;;;;;;-1.50;74.19;147300.77;1761551;80;21031;-61
2021/12/21 03:51:19;;;;;;;1.45;0.90;;;;;;;-1.55;74.00;147287.88;1756170;80;21051;-61
2021/12/21 03:53:47;;;;;;;16.93;5.97;;;;;;;-1.58;73.84;147281.47;1757231;80;21529;-61
2021/12/21 03:58:58;;;;;;;25.70;10.20;;;;;;;-1.67;71.77;147258.31;1766208;80;21028;-60
2021/12/21 04:01:25;;;;;;;12.15;3.83;;;;;;;-1.70;69.84;147250.61;1753225;80;20937;-60
2021/12/21 04:03:52;;;;;;;18.52;6.50;;;;;;;-1.73;68.55;147245.47;1763606;80;21408;-61
2021/12/21 04:06:19;;;;;;;10.15;2.87;;;;;;;-1.75;66.90;147239.08;1761389;80;21073;-60
2021/12/21 04:08:45;;;;;;;19.17;6.53;;;;;;;-1.78;65.53;147232.62;1755739;80;20966;-60
2021/12/21 04:11:13;;;;;;;24.45;9.55;;;;;;;-1.83;65.33;147219.80;1751796;80;21048;-60
2021/12/21 04:13:39;;;;;;;13.10;3.77;;;;;;;-1.84;65.07;147217.22;1746625;80;21136;-60
2021/12/21 04:16:06;;;;;;;30.23;11.73;;;;;;;-1.87;64.94;147209.53;1751440;80;21054;-60
2021/12/21 04:18:37;;;;;;;37.80;14.28;;;;;;;-1.90;64.35;147201.77;1755340;80;21029;-60
2021/12/21 04:21:04;;;;;;;43.25;15.75;;;;;;;-1.96;64.26;147187.67;1751835;80;20993;-61
2021/12/21 04:23:31;;;;;;;40.43;16.10;;;;;;;-2.00;64.13;147177.34;1751753;80;21407;-60
2021/12/21 04:25:58;;;;;;;36.05;13.62;;;;;;;-2.03;64.26;147170.97;1756852;80;21116;-60
2021/12/21 04:28:25;;;;;;;18.25;6.10;;;;;;;-2.06;62.49;147163.27;1751211;80;20951;-61
2021/12/21 04:30:54;;;;;;;91.05;32.80;;;;;;;-2.10;61.58;147152.98;1749549;80;20962;-59
2021/12/21 04:33:22;;;;;;;69.03;28.50;;;;;;;-2.13;61.14;147143.98;1752724;80;21082;-61
2021/12/21 04:35:48;;;;;;;54.93;20.00;;;;;;;-2.16;59.81;147137.53;1757922;80;21545;-61
2021/12/21 04:38:22;;;;;;;146.77;50.08;;;;;;;-2.19;58.81;147131.16;1746451;80;21120;-61
2021/12/21 04:40:58;;;;;;;76.45;28.05;;;;;;;-2.20;59.00;147127.28;1769360;79;21001;-61
2021/12/21 04:43:22;;;;;;;28.15;9.35;;;;;;;-2.22;59.25;147122.14;1751500;79;21493;-60
2021/12/21 04:45:51;;;;;;;54.25;15.58;;;;;;;-2.24;59.05;147118.27;1758126;80;21000;-61
2021/12/21 04:48:18;;;;;;;17.07;5.73;;;;;;;-2.26;59.07;147111.87;1751085;80;21078;-62
2021/12/21 04:50:45;;;;;;;6.67;1.70;;;;;;;-2.31;58.60;147101.59;1762708;80;21352;-61
2021/12/21 04:53:11;;;;;;;14.07;5.23;;;;;;;-2.34;58.65;147093.86;1758718;80;21202;-59
2021/12/21 04:55:38;;;;;;;8.75;2.02;;;;;;;-2.35;58.76;147091.28;1754707;80;20934;-60
2021/12/21 04:58:06;;;;;;;8.10;2.50;;;;;;;-2.37;58.72;147086.16;1751817;80;21111;-57
2021/12/21 05:00:34;;;;;;;3.02;0.80;;;;;;;-2.38;58.17;147083.59;1771740;79;21063;-58
2021/12/21 05:03:02;;;;;;;0.60;0.50;;;;;;;-2.39;58.56;147081.03;1770049;79;21098;-58
2021/12/21 05:05:29;;;;;;;1.82;0.57;;;;;;;-2.43;58.24;147070.75;1754832;80;21028;-59
2021/12/21 05:08:12;;;;;;;1.30;0.50;;;;;;;-2.46;58.45;147064.31;1758219;80;21365;-61
2021/12/21 05:10:53;;;;;;;9.83;0.80;;;;;;;-2.49;57.83;147055.36;1746731;80;20964;-59
2021/12/21 05:13:23;;;;;;;2.42;0.60;;;;;;;-2.52;58.02;147047.66;1763116;80;21031;-61
2021/12/21 05:15:49;;;;;;;3.77;0.80;;;;;;;-2.53;58.30;147045.09;1760775;79;21098;-60
2021/12/21 05:18:16;;;;;;;7.80;1.00;;;;;;;-2.56;58.74;147037.34;1746055;80;21056;-60
2021/12/21 05:20:43;;;;;;;2.67;1.05;;;;;;;-2.53;58.61;147045.09;1770259;80;21072;-61
2021/12/21 05:23:09;;;;;;;3.07;0.80;;;;;;;-2.53;58.89;147045.09;1740291;80;21417;-61
2021/12/21 05:25:36;;;;;;;2.65;0.68;;;;;;;-2.54;59.09;147042.47;1738498;81;21100;-59
2021/12/21 05:28:04;;;;;;;6.08;0.98;;;;;;;-2.54;59.19;147042.47;1741028;81;21822;-60
2021/12/21 05:30:31;;;;;;;2.15;0.72;;;;;;;-2.56;59.02;147037.34;1741643;81;21054;-61
2021/12/21 05:32:58;;;;;;;3.20;0.80;;;;;;;-2.59;59.43;147032.22;1760528;80;20993;-61
2021/12/21 05:35:26;;;;;;;1.30;0.80;;;;;;;-2.61;59.65;147027.09;1743933;82;21079;-61
2021/12/21 05:37:58;;;;;;;2.83;0.90;;;;;;;-2.63;59.82;147021.95;1771927;80;21098;-60
2021/12/21 05:40:29;;;;;;;1.85;0.78;;;;;;;-2.66;60.17;147012.95;1744759;82;21584;-60
2021/12/21 05:42:51;;;;;;;8.30;0.90;;;;;;;-2.69;60.44;147005.25;1759496;80;21093;-60
2021/12/21 05:45:18;;;;;;;7.08;0.88;;;;;;;-2.71;60.74;147001.42;1760838;80;21471;-62
2021/12/21 05:47:45;;;;;;;1.52;0.70;;;;;;;-2.70;61.16;147003.98;1760253;79;21410;-61
2021/12/21 05:50:16;;;;;;;1.98;1.00;;;;;;;-2.70;61.42;147003.98;1767917;80;21850;-61
2021/12/21 05:52:43;;;;;;;1.87;1.02;;;;;;;-2.68;61.77;147007.81;1741375;80;21929;-60
2021/12/21 05:55:20;;;;;;;7.97;1.12;;;;;;;-2.68;62.07;147009.12;1762789;79;21887;-60
2021/12/21 05:57:47;;;;;;;3.25;1.10;;;;;;;-2.69;62.38;147006.56;1748634;80;21076;-60
2021/12/21 06:00:18;;;;;;;9.25;1.20;;;;;;;-2.69;62.73;147005.25;1769425;80;21490;-61
2021/12/21 06:02:45;;;;;;;5.03;1.40;;;;;;;-2.71;63.12;147001.42;1769260;80;21058;-61
2021/12/21 06:05:12;;;;;;;4.00;1.17;;;;;;;-2.70;63.49;147003.98;1763189;80;21138;-61
2021/12/21 06:07:40;;;;;;;7.03;1.22;;;;;;;-2.69;63.78;147006.56;1747765;80;21163;-61
2021/12/21 06:10:20;;;;;;;5.28;1.07;;;;;;;-2.69;63.95;147006.56;1775166;80;21096;-60
2021/12/21 06:26:01;;;;;;;2.00;1.07;;;;;;;-2.47;64.41;147060.50;1738868;81;20990;-60
2021/12/21 06:28:27;;;;;;;8.85;1.27;;;;;;;-2.45;64.16;147065.63;1749694;80;21041;-60
2021/12/21 06:30:54;;;;;;;6.42;1.30;;;;;;;-2.43;64.12;147069.45;1747000;80;21573;-62
2021/12/21 06:33:22;;;;;;;6.53;1.85;;;;;;;-2.42;64.20;147073.31;1750532;80;21036;-61
2021/12/21 06:35:49;;;;;;;10.13;1.60;;;;;;;-2.36;64.39;147087.47;1751321;80;21640;-62
2021/12/21 06:38:16;;;;;;;10.15;1.47;;;;;;;-2.31;64.64;147100.30;1755357;80;21033;-60
2021/12/21 06:40:43;;;;;;;3.47;1.35;;;;;;;-2.27;64.57;147109.31;1749470;80;21060;-60
2021/12/21 06:43:15;;;;;;;3.77;1.32;;;;;;;-2.26;64.60;147111.87;1748781;80;21894;-61
2021/12/21 06:53:40;;;;;;;8.88;1.55;;;;;;;-2.16;65.28;147138.84;1787256;79;21055;-58
2021/12/21 06:56:08;;;;;;;9.80;1.80;;;;;;;-2.08;65.36;147158.12;1783359;79;21514;-60
2021/12/21 06:58:35;;;;;;;4.72;1.57;;;;;;;-2.02;65.56;147172.22;1780910;79;21599;-60
2021/12/21 07:01:03;;;;;;;9.83;2.05;;;;;;;-1.98;65.38;147181.23;1749038;79;21205;-60
2021/12/21 07:03:31;;;;;;;8.93;1.95;;;;;;;-1.97;65.62;147183.80;1777225;79;21049;-61
2021/12/21 07:06:02;;;;;;;5.80;2.10;;;;;;;-1.98;65.67;147182.53;1761907;80;21506;-60
2021/12/21 07:08:32;;;;;;;6.80;1.52;;;;;;;-2.02;66.00;147173.53;1766378;80;21499;-61
2021/12/21 07:19:05;;;;;;;6.55;1.50;;;;;;;-2.08;67.83;147158.12;1755271;80;21078;-60
2021/12/21 07:21:32;;;;;;;3.13;1.33;;;;;;;-2.04;68.28;147167.09;1758957;80;21447;-60
2021/12/21 07:23:59;;;;;;;6.97;1.95;;;;;;;-2.03;68.33;147169.66;1759272;80;21078;-60
2021/12/21 07:26:26;;;;;;;10.53;2.27;;;;;;;-2.05;68.71;147165.83;1758874;78;21085;-61
2021/12/21 07:28:55;;;;;;;11.85;1.82;;;;;;;-1.98;69.20;147181.23;1748528;80;21550;-60
2021/12/21 07:31:23;;;;;;;14.00;1.62;;;;;;;-1.90;69.36;147201.77;1751537;79;21089;-60
2021/12/21 07:33:51;;;;;;;3.10;1.47;;;;;;;-1.83;69.52;147219.80;1749350;80;21825;-60
2021/12/21 07:36:17;;;;;;;10.15;1.70;;;;;;;-1.82;69.60;147222.36;1746334;80;21560;-61
2021/12/21 07:38:44;;;;;;;6.25;1.75;;;;;;;-1.86;69.68;147212.09;1754559;79;21123;-61
2021/12/21 07:41:11;;;;;;;5.28;1.80;;;;;;;-1.88;70.43;147206.91;1756269;79;21111;-62
2021/12/21 07:43:38;;;;;;;8.30;1.77;;;;;;;-1.87;70.86;147209.53;1780088;79;21069;-60
2021/12/21 07:46:05;;;;;;;10.88;1.80;;;;;;;-1.79;71.04;147230.06;1784736;79;21976;-61
2021/12/21 07:48:33;;;;;;;3.12;1.70;;;;;;;-1.70;71.21;147250.61;1765634;79;21127;-60
2021/12/21 07:51:00;;;;;;;5.42;1.75;;;;;;;-1.60;71.27;147276.34;1760749;80;20992;-60
2021/12/21 07:53:29;;;;;;;7.45;1.42;;;;;;;-1.51;71.17;147298.19;1778797;79;20982;-60
2021/12/21 07:56:01;;;;;;;2.87;1.22;;;;;;;-1.47;70.77;147309.72;1754223;80;21056;-61
2021/12/21 07:58:29;;;;;;;3.40;1.60;;;;;;;-1.47;70.72;147308.47;1776635;79;21504;-60
2021/12/21 08:00:53;;;;;;;10.10;1.82;;;;;;;-1.51;70.62;147299.45;1759632;80;21103;-60
2021/12/21 08:03:21;;;;;;;5.30;1.57;;;;;;;-1.56;70.79;147286.61;1776874;79;21085;-60
2021/12/21 08:05:52;;;;;;;6.72;1.80;;;;;;;-1.60;71.06;147276.34;1754944;80;21560;-60
2021/12/21 08:08:21;;;;;;;11.25;1.92;;;;;;;-1.64;71.37;147266.06;1752949;80;21043;-61
2021/12/21 08:13:18;;;;;;;6.83;2.15;;;;;;;-1.54;71.86;147291.75;1752989;80;21060;-60
2021/12/21 08:15:47;;;;;;;5.53;1.82;;;;;;;-1.52;71.98;147296.88;1751899;80;21044;-61
2021/12/21 08:18:14;;;;;;;7.12;2.17;;;;;;;-1.47;71.70;147309.72;1754588;80;21193;-61
2021/12/21 08:20:42;;;;;;;7.72;2.47;;;;;;;-1.48;71.72;147307.16;1750881;80;21101;-61
2021/12/21 08:23:09;;;;;;;8.10;2.12;;;;;;;-1.43;71.91;147317.48;1776208;79;22315;-60
2021/12/21 08:25:36;;;;;;;4.05;1.45;;;;;;;-1.42;71.64;147320.05;1758068;79;21087;-60
2021/12/21 08:28:06;;;;;;;4.72;2.00;;;;;;;-1.40;71.78;147326.44;1740457;80;21122;-61
2021/12/21 08:30:35;;;;;;;3.92;2.33;;;;;;;-1.37;71.89;147334.16;1756895;80;21905;-61
2021/12/21 08:33:03;;;;;;;10.90;4.35;;;;;;;-1.37;71.52;147332.89;1757457;80;21080;-60
2021/12/21 08:35:30;;;;;;;6.97;2.12;;;;;;;-1.36;71.55;147335.47;1755365;80;22459;-60
2021/12/21 08:38:04;;;;;;;8.73;1.98;;;;;;;-1.34;71.83;147341.86;1756716;80;20981;-61
2021/12/21 08:40:36;;;;;;;5.40;1.90;;;;;;;-1.32;71.52;147345.73;1752211;80;21028;-60
2021/12/21 08:42:57;;;;;;;5.58;1.80;;;;;;;-1.27;71.22;147358.58;1753744;80;21045;-60
2021/12/21 08:45:24;;;;;;;7.22;2.00;;;;;;;-1.25;69.92;147362.47;1751701;80;21131;-60
2021/12/21 08:47:55;;;;;;;8.68;1.85;;;;;;;-1.29;70.27;147353.44;1757745;80;21518;-60
2021/12/21 08:50:19;;;;;;;4.50;1.65;;;;;;;-1.30;70.02;147352.19;1754801;80;22648;-60
2021/12/21 08:52:47;;;;;;;9.13;2.55;;;;;;;-1.37;69.32;147332.89;1758187;80;21072;-61
2021/12/21 08:55:17;;;;;;;24.05;4.85;;;;;;;-1.51;69.01;147299.45;1756557;80;21068;-60
2021/12/21 08:57:43;;;;;;;9.88;2.50;;;;;;;-1.58;70.06;147281.47;1755387;80;21087;-60
2021/12/21 09:00:11;;;;;;;4.67;2.27;;;;;;;-1.54;70.65;147290.48;1749713;80;21875;-60
2021/12/21 09:02:38;;;;;;;6.95;2.42;;;;;;;-1.45;70.50;147313.59;1751400;80;21139;-60
2021/12/21 09:05:11;;;;;;;3.45;1.82;;;;;;;-1.39;70.08;147329.02;1748756;80;21279;-60
2021/12/21 09:07:35;;;;;;;7.50;4.12;;;;;;;-1.35;70.11;147339.30;1760154;79;21077;-61
2021/12/21 09:10:04;;;;;;;134.55;53.28;;;;;;;-1.33;70.27;147343.17;1757996;78;21127;-60
2021/12/21 09:12:33;;;;;;;12.75;5.00;;;;;;;-1.29;70.03;147353.44;1758646;80;21805;-59
2021/12/21 09:15:01;;;;;;;6.28;2.17;;;;;;;-1.24;69.71;147365.03;1759685;80;21573;-61
2021/12/21 09:17:28;;;;;;;8.48;1.75;;;;;;;-1.23;67.50;147368.86;1762056;80;21106;-60
2021/12/21 09:19:57;;;;;;;42.33;18.45;;;;;;;-1.24;67.03;147366.28;1752934;80;21478;-60
2021/12/21 09:22:24;;;;;;;10.18;3.70;;;;;;;-1.28;67.10;147354.75;1761432;80;21072;-60
2021/12/21 09:24:51;;;;;;;7.95;3.00;;;;;;;-1.28;66.57;147356.02;1755367;80;22508;-60
2021/12/21 09:27:21;;;;;;;7.25;3.20;;;;;;;-1.27;66.15;147358.58;1755935;80;21150;-61
2021/12/21 09:29:48;;;;;;;4.12;1.52;;;;;;;-1.21;66.20;147372.73;1758966;80;21150;-60
2021/12/21 09:32:18;;;;;;;5.05;2.33;;;;;;;-1.17;64.92;147383.02;1755584;80;21077;-59
2021/12/21 09:34:45;;;;;;;15.20;5.50;;;;;;;-1.14;65.30;147389.45;1756985;80;21080;-60
2021/12/21 09:37:19;;;;;;;10.78;4.58;;;;;;;-1.13;64.80;147393.28;1756424;80;21788;-60
2021/12/21 09:39:48;;;;;;;2.83;1.65;;;;;;;-1.09;64.70;147402.31;1757917;80;21588;-59
2021/12/21 09:42:19;;;;;;;38.70;10.93;;;;;;;-1.09;66.04;147402.31;1756129;80;21445;-60
2021/12/21 09:44:46;;;;;;;16.40;6.78;;;;;;;-1.13;65.61;147392.03;1752412;80;21458;-59
2021/12/21 09:47:14;;;;;;;14.68;5.42;;;;;;;-1.17;65.72;147384.31;1754108;80;21059;-60
2021/12/21 09:49:48;;;;;;;100.02;34.92;;;;;;;-1.18;66.19;147380.44;1763616;80;21137;-59
2021/12/21 09:52:29;;;;;;;21.80;5.37;;;;;;;-1.20;66.83;147375.30;1754792;80;21594;-61
2021/12/21 09:54:59;;;;;;;11.63;1.62;;;;;;;-1.20;67.15;147375.30;1755295;80;21671;-60
2021/12/21 09:57:28;;;;;;;3.85;1.80;;;;;;;-1.22;66.46;147371.42;1754553;80;21455;-61
2021/12/21 09:59:55;;;;;;;16.93;5.97;;;;;;;-1.26;65.58;147361.16;1759197;80;21123;-60
2021/12/21 10:02:26;;;;;;;29.23;10.32;;;;;;;-1.28;65.67;147356.02;1755740;80;21882;-59
2021/12/21 10:04:58;;;;;;;44.70;17.60;;;;;;;-1.24;66.55;147366.28;1754698;80;21117;-61
2021/12/21 10:07:25;;;;;;;3.87;1.80;;;;;;;-1.21;67.38;147374.05;1758017;80;21099;-61
2021/12/21 10:10:12;;;;;;;61.30;20.48;;;;;;;-1.22;66.79;147371.42;1757833;80;21067;-60
2021/12/21 10:12:45;;;;;;;116.57;46.42;;;;;;;-1.25;67.00;147363.72;1758395;80;21540;-60
2021/12/21 10:15:22;;;;;;;18.02;7.95;;;;;;;-1.27;66.24;147358.58;1760800;80;21730;-60
2021/12/21 10:17:58;;;;;;;6.97;3.52;;;;;;;-1.19;66.61;147377.88;1760517;80;21536;-60
2021/12/21 10:20:46;;;;;;;10.20;1.90;;;;;;;-1.07;66.75;147408.75;1760295;80;21076;-61
2021/12/21 10:23:20;;;;;;;122.40;32.42;;;;;;;-1.07;66.93;147407.44;1755136;80;21063;-61
2021/12/21 10:25:55;;;;;;;29.40;10.80;;;;;;;-1.10;67.62;147399.73;1753515;80;21154;-62
2021/12/21 10:28:30;;;;;;;67.78;24.35;;;;;;;-1.14;71.61;147389.45;1754635;80;23359;-60
2021/12/21 10:30:59;;;;;;;27.52;10.20;;;;;;;-1.35;72.09;147339.30;1776576;79;21068;-60
2021/12/21 10:33:27;;;;;;;10.20;3.85;;;;;;;-1.42;71.58;147320.05;1736384;80;21238;-60
2021/12/21 10:35:57;;;;;;;42.95;17.30;;;;;;;-1.40;70.73;147326.44;1753008;79;21070;-59
2021/12/21 10:38:30;;;;;;;44.93;17.65;;;;;;;-1.40;71.52;147326.44;1708384;79;21576;-61
2021/12/21 10:41:10;;;;;;;22.48;8.15;;;;;;;-1.45;71.52;147313.59;1743128;80;21098;-60
2021/12/21 10:43:37;;;;;;;12.33;5.35;;;;;;;-1.55;70.81;147289.19;1757006;79;22101;-62
2021/12/21 10:46:04;;;;;;;23.62;6.70;;;;;;;-1.58;70.69;147281.47;1754364;80;21459;-60
2021/12/21 10:48:35;;;;;;;20.45;8.10;;;;;;;-1.54;71.33;147290.48;1753245;80;21064;-60
2021/12/21 10:51:04;;;;;;;52.10;19.98;;;;;;;-1.52;70.94;147296.88;1756011;80;21142;-60
2021/12/21 10:53:32;;;;;;;15.60;6.95;;;;;;;-1.59;69.56;147278.91;1753227;80;21141;-62
2021/12/21 10:56:07;;;;;;;55.28;22.27;;;;;;;-1.71;73.65;147249.34;1765502;80;21004;-62
2021/12/21 10:58:42;;;;;;;42.90;15.73;;;;;;;-2.04;80.28;147168.39;1754115;80;21040;-62
2021/12/21 11:01:12;;;;;;;93.23;34.60;;;;;;;-2.39;85.06;147079.77;1759182;80;21020;-60
2021/12/21 11:03:52;;;;;;;112.12;42.58;;;;;;;-2.60;87.22;147029.66;1759282;80;21164;-60
2021/12/21 11:06:33;;;;;;;153.60;58.15;;;;;;;-2.66;85.86;147014.25;1755897;80;21879;-62
2021/12/21 11:08:58;;;;;;;75.97;27.45;;;;;;;-2.68;84.02;147009.12;1757111;80;20927;-62
2021/12/21 11:11:42;;;;;;;329.97;111.30;;;;;;;-2.69;81.53;147006.56;1752687;80;21108;-63
2021/12/21 11:14:14;;;;;;;270.07;100.45;;;;;;;-2.67;80.52;147010.37;1755961;80;21131;-61
2021/12/21 11:16:47;;;;;;;215.80;79.80;;;;;;;-2.61;79.37;147027.09;1754412;80;21408;-60
2021/12/21 11:19:18;;;;;;;161.43;55.60;;;;;;;-2.52;78.72;147047.66;1758647;78;21155;-61
2021/12/21 11:21:46;;;;;;;325.40;111.83;;;;;;;-2.48;78.36;147057.94;1752388;80;20993;-62
2021/12/21 11:24:15;;;;;;;198.80;70.70;;;;;;;-2.55;83.29;147041.22;1755631;80;22158;-61
2021/12/21 11:26:46;;;;;;;90.62;31.57;;;;;;;-2.62;85.16;147024.52;1757049;80;21807;-60
2021/12/21 11:29:16;;;;;;;33.30;11.30;;;;;;;-2.64;86.60;147019.38;1756718;80;21289;-60
2021/12/21 11:31:47;;;;;;;41.25;15.00;;;;;;;-2.71;86.85;147001.42;1760717;80;22032;-61
2021/12/21 11:34:20;;;;;;;19.20;7.03;;;;;;;-2.69;86.60;147005.25;1755906;80;21612;-61
2021/12/21 11:39:39;;;;;;;211.95;76.12;;;;;;;-2.48;84.92;147057.94;1757288;80;21123;-62
2021/12/21 11:42:07;;;;;;;130.40;46.68;;;;;;;-2.41;82.32;147075.89;1761460;80;21537;-62
2021/12/21 11:44:56;;;;;;;85.40;31.12;;;;;;;-2.32;80.47;147099.03;1757376;80;21270;-62
2021/12/21 11:47:47;;;;;;;71.20;26.82;;;;;;;-2.21;76.92;147124.70;1746509;80;21072;-62
2021/12/21 11:50:14;;;;;;;32.00;12.10;;;;;;;-2.12;75.56;147146.55;1791553;79;21062;-61
2021/12/21 11:52:45;;;;;;;2.85;1.60;;;;;;;-2.00;75.32;147176.09;1758402;80;21025;-63
2021/12/21 11:55:12;;;;;;;4.95;1.50;;;;;;;-1.93;70.45;147194.06;1755637;80;21031;-61
2021/12/21 11:57:52;;;;;;;6.97;3.02;;;;;;;-1.88;68.85;147206.91;1762226;80;21119;-61
2021/12/21 12:00:29;;;;;;;4.05;1.42;;;;;;;-1.87;66.33;147210.78;1757809;80;21084;-61
2021/12/21 12:03:20;;;;;;;2.40;1.45;;;;;;;-1.87;65.45;147209.53;1753904;80;21096;-63
2021/12/21 12:06:03;;;;;;;4.20;1.70;;;;;;;-1.87;65.50;147209.53;1739397;80;21572;-60
2021/12/21 12:08:49;;;;;;;7.05;2.00;;;;;;;-1.85;65.18;147214.66;1753491;80;21497;-62
2021/12/21 12:11:39;;;;;;;7.85;2.20;;;;;;;-1.79;64.38;147230.06;1756103;80;21053;-62
2021/12/21 12:14:17;;;;;;;5.17;2.08;;;;;;;-1.76;63.53;147237.77;1735362;80;21419;-61
2021/12/21 12:16:58;;;;;;;25.95;10.00;;;;;;;-1.79;63.11;147230.06;1749728;79;21142;-60
2021/12/21 12:19:34;;;;;;;78.40;31.00;;;;;;;-1.80;63.08;147227.50;1754699;79;21109;-61
2021/12/21 12:22:07;;;;;;;13.55;5.78;;;;;;;-1.76;64.13;147236.52;1750785;79;21079;-60
2021/12/21 12:24:45;;;;;;;12.03;5.22;;;;;;;-1.68;63.41;147255.75;1741664;79;21107;-60
2021/12/21 12:27:21;;;;;;;6.53;2.60;;;;;;;-1.64;62.51;147266.06;1746131;79;20992;-61
2021/12/21 12:29:54;;;;;;;3.75;1.85;;;;;;;-1.62;61.49;147271.20;1743675;80;21095;-60
2021/12/21 12:32:37;;;;;;;;;;;;;;;-1.65;60.75;147263.50;1757780;79;21078;-59
2021/12/21 12:35:17;;;;;;;2.12;1.12;;;;;;;-1.69;59.28;147253.17;1751827;79;20207;-61
2021/12/21 12:38:08;;;;;;;3.27;1.20;;;;;;;-1.78;59.04;147232.62;1739850;79;21678;-63
2021/12/21 12:40:45;;;;;;;4.55;1.20;;;;;;;-1.84;57.75;147217.22;1743525;79;21154;-61
2021/12/21 12:43:30;;;;;;;2.58;1.50;;;;;;;-1.95;56.60;147188.94;1723803;80;21039;-60